sensor_id;sensor_type;location;lat;lon;timestamp;P1;durP1;ratioP1;P2;durP2;ratioP2
8982;SDS011;20979;59.850;10.660;2022-10-29T00:18:13;3.80;;;1.50;;
8982;SDS011;20979;59.850;10.660;2022-10-29T00:20:45;3.07;;;1.30;;
8982;SDS011;20979;59.850;10.660;2022-10-29T00:23:12;1.17;;;1.07;;
8982;SDS011;20979;59.850;10.660;2022-10-29T00:25:39;2.23;;;1.20;;
8982;SDS011;20979;59.850;10.660;2022-10-29T00:28:19;1.43;;;1.17;;
8982;SDS011;20979;59.850;10.660;2022-10-29T00:31:07;13.73;;;1.97;;
8982;SDS011;20979;59.850;10.660;2022-10-29T00:33:39;8.40;;;2.00;;
8982;SDS011;20979;59.850;10.660;2022-10-29T00:36:09;10.23;;;1.90;;
8982;SDS011;20979;59.850;10.660;2022-10-29T00:38:36;1.20;;;1.20;;
8982;SDS011;20979;59.850;10.660;2022-10-29T00:41:04;4.13;;;3.43;;
8982;SDS011;20979;59.850;10.660;2022-10-29T00:43:32;3.27;;;1.60;;
8982;SDS011;20979;59.850;10.660;2022-10-29T00:46:01;3.73;;;1.80;;
8982;SDS011;20979;59.850;10.660;2022-10-29T00:48:30;3.93;;;3.17;;
8982;SDS011;20979;59.850;10.660;2022-10-29T00:50:59;10.80;;;8.20;;
8982;SDS011;20979;59.850;10.660;2022-10-29T00:53:29;10.67;;;6.67;;
8982;SDS011;20979;59.850;10.660;2022-10-29T00:55:57;2.73;;;2.20;;
8982;SDS011;20979;59.850;10.660;2022-10-29T00:58:25;1.43;;;1.13;;
8982;SDS011;20979;59.850;10.660;2022-10-29T01:00:53;2.87;;;1.10;;
8982;SDS011;20979;59.850;10.660;2022-10-29T01:03:20;1.10;;;1.10;;
8982;SDS011;20979;59.850;10.660;2022-10-29T01:05:47;1.00;;;1.00;;
8982;SDS011;20979;59.850;10.660;2022-10-29T01:08:16;2.43;;;1.07;;
8982;SDS011;20979;59.850;10.660;2022-10-29T01:10:46;2.80;;;0.90;;
8982;SDS011;20979;59.850;10.660;2022-10-29T01:13:17;1.20;;;1.00;;
8982;SDS011;20979;59.850;10.660;2022-10-29T01:15:51;1.57;;;1.10;;
8982;SDS011;20979;59.850;10.660;2022-10-29T01:18:21;2.47;;;1.20;;
8982;SDS011;20979;59.850;10.660;2022-10-29T01:20:58;3.10;;;1.47;;
8982;SDS011;20979;59.850;10.660;2022-10-29T01:23:41;1.30;;;1.20;;
8982;SDS011;20979;59.850;10.660;2022-10-29T01:26:29;1.40;;;0.93;;
8982;SDS011;20979;59.850;10.660;2022-10-29T01:29:09;1.47;;;1.10;;
8982;SDS011;20979;59.850;10.660;2022-10-29T01:31:43;1.27;;;0.60;;
8982;SDS011;20979;59.850;10.660;2022-10-29T01:34:16;1.10;;;0.80;;
8982;SDS011;20979;59.850;10.660;2022-10-29T01:36:52;0.50;;;0.50;;
8982;SDS011;20979;59.850;10.660;2022-10-29T01:39:22;0.70;;;0.50;;
8982;SDS011;20979;59.850;10.660;2022-10-29T01:41:53;2.10;;;0.73;;
8982;SDS011;20979;59.850;10.660;2022-10-29T01:44:26;0.70;;;0.60;;
8982;SDS011;20979;59.850;10.660;2022-10-29T01:47:00;0.50;;;0.50;;
8982;SDS011;20979;59.850;10.660;2022-10-29T01:49:28;0.73;;;0.60;;
8982;SDS011;20979;59.850;10.660;2022-10-29T01:51:58;0.30;;;0.30;;
8982;SDS011;20979;59.850;10.660;2022-10-29T01:54:26;1.03;;;0.43;;
8982;SDS011;20979;59.850;10.660;2022-10-29T01:56:54;1.37;;;0.50;;
8982;SDS011;20979;59.850;10.660;2022-10-29T01:59:21;0.80;;;0.40;;
8982;SDS011;20979;59.850;10.660;2022-10-29T02:01:51;0.50;;;0.50;;
8982;SDS011;20979;59.850;10.660;2022-10-29T02:04:29;0.37;;;0.37;;
8982;SDS011;20979;59.850;10.660;2022-10-29T02:07:04;1.33;;;0.43;;
8982;SDS011;20979;59.850;10.660;2022-10-29T02:09:36;0.73;;;0.40;;
8982;SDS011;20979;59.850;10.660;2022-10-29T02:12:08;1.00;;;0.57;;
8982;SDS011;20979;59.850;10.660;2022-10-29T02:14:37;0.43;;;0.43;;
8982;SDS011;20979;59.850;10.660;2022-10-29T02:17:05;1.00;;;0.50;;
8982;SDS011;20979;59.850;10.660;2022-10-29T02:19:34;0.97;;;0.60;;
8982;SDS011;20979;59.850;10.660;2022-10-29T02:22:02;0.43;;;0.40;;
8982;SDS011;20979;59.850;10.660;2022-10-29T02:24:29;1.00;;;0.50;;
8982;SDS011;20979;59.850;10.660;2022-10-29T02:26:56;0.83;;;0.50;;
8982;SDS011;20979;59.850;10.660;2022-10-29T02:29:24;1.20;;;0.60;;
8982;SDS011;20979;59.850;10.660;2022-10-29T02:31:51;0.80;;;0.50;;
8982;SDS011;20979;59.850;10.660;2022-10-29T02:34:18;0.63;;;0.50;;
8982;SDS011;20979;59.850;10.660;2022-10-29T02:36:47;0.80;;;0.57;;
8982;SDS011;20979;59.850;10.660;2022-10-29T02:39:14;1.03;;;0.50;;
8982;SDS011;20979;59.850;10.660;2022-10-29T02:41:42;0.63;;;0.30;;
8982;SDS011;20979;59.850;10.660;2022-10-29T02:44:09;0.57;;;0.50;;
8982;SDS011;20979;59.850;10.660;2022-10-29T02:46:36;0.33;;;0.30;;
8982;SDS011;20979;59.850;10.660;2022-10-29T02:49:05;0.50;;;0.40;;
8982;SDS011;20979;59.850;10.660;2022-10-29T02:51:32;0.83;;;0.50;;
8982;SDS011;20979;59.850;10.660;2022-10-29T02:54:01;0.53;;;0.50;;
8982;SDS011;20979;59.850;10.660;2022-10-29T02:56:31;0.63;;;0.50;;
8982;SDS011;20979;59.850;10.660;2022-10-29T02:59:05;0.87;;;0.60;;
8982;SDS011;20979;59.850;10.660;2022-10-29T03:01:33;2.30;;;0.80;;
8982;SDS011;20979;59.850;10.660;2022-10-29T03:04:00;0.40;;;0.40;;
8982;SDS011;20979;59.850;10.660;2022-10-29T03:06:27;1.80;;;0.60;;
8982;SDS011;20979;59.850;10.660;2022-10-29T03:08:55;0.30;;;0.30;;
8982;SDS011;20979;59.850;10.660;2022-10-29T03:11:23;1.00;;;0.60;;
8982;SDS011;20979;59.850;10.660;2022-10-29T03:13:51;0.83;;;0.50;;
8982;SDS011;20979;59.850;10.660;2022-10-29T03:16:18;0.60;;;0.40;;
8982;SDS011;20979;59.850;10.660;2022-10-29T03:18:45;1.53;;;0.53;;
8982;SDS011;20979;59.850;10.660;2022-10-29T03:21:13;0.57;;;0.30;;
8982;SDS011;20979;59.850;10.660;2022-10-29T03:23:40;0.97;;;0.30;;
8982;SDS011;20979;59.850;10.660;2022-10-29T03:26:09;0.60;;;0.27;;
8982;SDS011;20979;59.850;10.660;2022-10-29T03:28:37;1.10;;;0.47;;
8982;SDS011;20979;59.850;10.660;2022-10-29T03:31:05;2.23;;;0.40;;
8982;SDS011;20979;59.850;10.660;2022-10-29T03:33:32;1.37;;;0.47;;
8982;SDS011;20979;59.850;10.660;2022-10-29T03:36:00;0.40;;;0.40;;
8982;SDS011;20979;59.850;10.660;2022-10-29T03:38:27;1.30;;;0.60;;
8982;SDS011;20979;59.850;10.660;2022-10-29T03:40:55;0.53;;;0.40;;
8982;SDS011;20979;59.850;10.660;2022-10-29T03:43:22;0.70;;;0.30;;
8982;SDS011;20979;59.850;10.660;2022-10-29T03:46:00;0.73;;;0.60;;
8982;SDS011;20979;59.850;10.660;2022-10-29T03:48:48;0.43;;;0.30;;
8982;SDS011;20979;59.850;10.660;2022-10-29T03:51:29;0.87;;;0.40;;
8982;SDS011;20979;59.850;10.660;2022-10-29T03:53:57;0.77;;;0.30;;
8982;SDS011;20979;59.850;10.660;2022-10-29T03:56:24;0.60;;;0.23;;
8982;SDS011;20979;59.850;10.660;2022-10-29T03:58:54;1.53;;;0.40;;
8982;SDS011;20979;59.850;10.660;2022-10-29T04:01:25;0.27;;;0.23;;
8982;SDS011;20979;59.850;10.660;2022-10-29T04:03:52;0.37;;;0.37;;
8982;SDS011;20979;59.850;10.660;2022-10-29T04:06:20;1.03;;;0.40;;
8982;SDS011;20979;59.850;10.660;2022-10-29T04:08:47;0.60;;;0.30;;
8982;SDS011;20979;59.850;10.660;2022-10-29T04:11:14;0.20;;;0.20;;
8982;SDS011;20979;59.850;10.660;2022-10-29T04:13:41;0.20;;;0.20;;
8982;SDS011;20979;59.850;10.660;2022-10-29T04:16:08;0.83;;;0.30;;
8982;SDS011;20979;59.850;10.660;2022-10-29T04:18:37;0.83;;;0.10;;
8982;SDS011;20979;59.850;10.660;2022-10-29T04:21:04;0.17;;;0.10;;
8982;SDS011;20979;59.850;10.660;2022-10-29T04:23:32;1.93;;;0.30;;
8982;SDS011;20979;59.850;10.660;2022-10-29T04:25:59;0.53;;;0.27;;
8982;SDS011;20979;59.850;10.660;2022-10-29T04:28:28;0.20;;;0.20;;
8982;SDS011;20979;59.850;10.660;2022-10-29T04:30:56;0.10;;;0.10;;
8982;SDS011;20979;59.850;10.660;2022-10-29T04:33:24;0.13;;;0.13;;
8982;SDS011;20979;59.850;10.660;2022-10-29T04:35:53;1.63;;;0.53;;
8982;SDS011;20979;59.850;10.660;2022-10-29T04:38:37;0.83;;;0.30;;
8982;SDS011;20979;59.850;10.660;2022-10-29T04:41:39;0.20;;;0.20;;
8982;SDS011;20979;59.850;10.660;2022-10-29T04:47:46;0.30;;;0.20;;
8982;SDS011;20979;59.850;10.660;2022-10-29T04:50:28;0.30;;;0.30;;
8982;SDS011;20979;59.850;10.660;2022-10-29T04:52:58;0.57;;;0.20;;
8982;SDS011;20979;59.850;10.660;2022-10-29T04:55:25;0.43;;;0.20;;
8982;SDS011;20979;59.850;10.660;2022-10-29T04:57:53;0.47;;;0.20;;
8982;SDS011;20979;59.850;10.660;2022-10-29T05:00:20;0.53;;;0.37;;
8982;SDS011;20979;59.850;10.660;2022-10-29T05:02:48;0.27;;;0.10;;
8982;SDS011;20979;59.850;10.660;2022-10-29T05:05:17;0.70;;;0.20;;
8982;SDS011;20979;59.850;10.660;2022-10-29T05:07:44;0.77;;;0.30;;
8982;SDS011;20979;59.850;10.660;2022-10-29T05:10:14;0.93;;;0.20;;
8982;SDS011;20979;59.850;10.660;2022-10-29T05:12:44;0.30;;;0.20;;
8982;SDS011;20979;59.850;10.660;2022-10-29T05:15:11;1.50;;;0.30;;
8982;SDS011;20979;59.850;10.660;2022-10-29T05:17:39;0.67;;;0.30;;
8982;SDS011;20979;59.850;10.660;2022-10-29T05:20:06;1.43;;;0.47;;
8982;SDS011;20979;59.850;10.660;2022-10-29T05:22:34;0.40;;;0.20;;
8982;SDS011;20979;59.850;10.660;2022-10-29T05:25:01;0.50;;;0.20;;
8982;SDS011;20979;59.850;10.660;2022-10-29T05:27:30;0.53;;;0.30;;
8982;SDS011;20979;59.850;10.660;2022-10-29T05:30:07;0.67;;;0.10;;
8982;SDS011;20979;59.850;10.660;2022-10-29T05:32:35;3.50;;;0.40;;
8982;SDS011;20979;59.850;10.660;2022-10-29T05:35:02;0.20;;;0.20;;
8982;SDS011;20979;59.850;10.660;2022-10-29T05:37:30;2.10;;;0.30;;
8982;SDS011;20979;59.850;10.660;2022-10-29T05:39:57;0.20;;;0.20;;
8982;SDS011;20979;59.850;10.660;2022-10-29T05:42:25;0.30;;;0.10;;
8982;SDS011;20979;59.850;10.660;2022-10-29T05:44:54;0.47;;;0.40;;
8982;SDS011;20979;59.850;10.660;2022-10-29T05:47:21;0.20;;;0.10;;
8982;SDS011;20979;59.850;10.660;2022-10-29T05:49:52;0.30;;;0.20;;
8982;SDS011;20979;59.850;10.660;2022-10-29T05:52:19;0.37;;;0.20;;
8982;SDS011;20979;59.850;10.660;2022-10-29T05:54:46;1.43;;;0.30;;
8982;SDS011;20979;59.850;10.660;2022-10-29T05:57:14;0.30;;;0.10;;
8982;SDS011;20979;59.850;10.660;2022-10-29T06:02:48;1.13;;;0.80;;
8982;SDS011;20979;59.850;10.660;2022-10-29T06:05:20;0.30;;;0.20;;
8982;SDS011;20979;59.850;10.660;2022-10-29T06:07:51;0.10;;;0.10;;
8982;SDS011;20979;59.850;10.660;2022-10-29T06:10:19;0.63;;;0.47;;
8982;SDS011;20979;59.850;10.660;2022-10-29T06:12:47;0.50;;;0.50;;
8982;SDS011;20979;59.850;10.660;2022-10-29T06:15:16;0.30;;;0.30;;
8982;SDS011;20979;59.850;10.660;2022-10-29T06:20:47;1.13;;;0.80;;
8982;SDS011;20979;59.850;10.660;2022-10-29T06:23:15;0.77;;;0.57;;
8982;SDS011;20979;59.850;10.660;2022-10-29T06:25:51;1.50;;;0.70;;
8982;SDS011;20979;59.850;10.660;2022-10-29T06:28:35;0.93;;;0.33;;
8982;SDS011;20979;59.850;10.660;2022-10-29T06:31:19;1.67;;;0.43;;
8982;SDS011;20979;59.850;10.660;2022-10-29T06:37:03;0.20;;;0.20;;
8982;SDS011;20979;59.850;10.660;2022-10-29T06:39:30;0.57;;;0.20;;
8982;SDS011;20979;59.850;10.660;2022-10-29T06:42:12;0.73;;;0.20;;
8982;SDS011;20979;59.850;10.660;2022-10-29T06:44:43;1.70;;;0.40;;
8982;SDS011;20979;59.850;10.660;2022-10-29T06:47:30;1.40;;;0.40;;
8982;SDS011;20979;59.850;10.660;2022-10-29T06:50:11;2.07;;;0.50;;
8982;SDS011;20979;59.850;10.660;2022-10-29T06:52:53;0.57;;;0.40;;
8982;SDS011;20979;59.850;10.660;2022-10-29T06:55:29;0.80;;;0.50;;
8982;SDS011;20979;59.850;10.660;2022-10-29T06:57:59;1.10;;;0.40;;
8982;SDS011;20979;59.850;10.660;2022-10-29T07:00:26;2.60;;;0.43;;
8982;SDS011;20979;59.850;10.660;2022-10-29T07:03:03;0.37;;;0.30;;
8982;SDS011;20979;59.850;10.660;2022-10-29T07:05:31;0.50;;;0.27;;
8982;SDS011;20979;59.850;10.660;2022-10-29T07:10:48;0.73;;;0.40;;
8982;SDS011;20979;59.850;10.660;2022-10-29T07:16:35;1.83;;;0.37;;
8982;SDS011;20979;59.850;10.660;2022-10-29T07:19:06;0.40;;;0.40;;
8982;SDS011;20979;59.850;10.660;2022-10-29T07:21:42;1.33;;;0.40;;
8982;SDS011;20979;59.850;10.660;2022-10-29T07:24:09;1.03;;;0.30;;
8982;SDS011;20979;59.850;10.660;2022-10-29T07:26:38;1.70;;;0.73;;
8982;SDS011;20979;59.850;10.660;2022-10-29T07:29:06;2.00;;;0.50;;
8982;SDS011;20979;59.850;10.660;2022-10-29T07:31:47;0.47;;;0.40;;
8982;SDS011;20979;59.850;10.660;2022-10-29T07:34:18;1.73;;;0.43;;
8982;SDS011;20979;59.850;10.660;2022-10-29T07:36:45;3.30;;;0.50;;
8982;SDS011;20979;59.850;10.660;2022-10-29T07:47:38;0.67;;;0.30;;
8982;SDS011;20979;59.850;10.660;2022-10-29T07:56:31;0.87;;;0.33;;
8982;SDS011;20979;59.850;10.660;2022-10-29T07:59:12;1.00;;;0.50;;
8982;SDS011;20979;59.850;10.660;2022-10-29T08:01:39;1.80;;;0.47;;
8982;SDS011;20979;59.850;10.660;2022-10-29T08:07:43;0.50;;;0.40;;
8982;SDS011;20979;59.850;10.660;2022-10-29T08:10:27;2.30;;;0.40;;
8982;SDS011;20979;59.850;10.660;2022-10-29T08:12:56;0.63;;;0.30;;
8982;SDS011;20979;59.850;10.660;2022-10-29T08:15:49;0.73;;;0.40;;
8982;SDS011;20979;59.850;10.660;2022-10-29T08:18:17;1.00;;;0.40;;
8982;SDS011;20979;59.850;10.660;2022-10-29T08:26:56;1.13;;;0.30;;
8982;SDS011;20979;59.850;10.660;2022-10-29T08:32:32;0.83;;;0.47;;
8982;SDS011;20979;59.850;10.660;2022-10-29T08:35:18;0.87;;;0.53;;
8982;SDS011;20979;59.850;10.660;2022-10-29T08:37:52;0.70;;;0.40;;
8982;SDS011;20979;59.850;10.660;2022-10-29T08:40:23;1.43;;;0.57;;
8982;SDS011;20979;59.850;10.660;2022-10-29T08:48:45;0.73;;;0.50;;
8982;SDS011;20979;59.850;10.660;2022-10-29T08:51:19;3.33;;;0.73;;
8982;SDS011;20979;59.850;10.660;2022-10-29T08:53:49;1.70;;;0.67;;
8982;SDS011;20979;59.850;10.660;2022-10-29T08:56:24;0.80;;;0.40;;
8982;SDS011;20979;59.850;10.660;2022-10-29T08:58:54;0.50;;;0.40;;
8982;SDS011;20979;59.850;10.660;2022-10-29T09:01:37;1.33;;;0.50;;
8982;SDS011;20979;59.850;10.660;2022-10-29T09:04:23;1.20;;;0.60;;
8982;SDS011;20979;59.850;10.660;2022-10-29T09:09:37;0.53;;;0.30;;
8982;SDS011;20979;59.850;10.660;2022-10-29T09:12:19;1.27;;;0.50;;
8982;SDS011;20979;59.850;10.660;2022-10-29T09:15:10;2.40;;;0.47;;
8982;SDS011;20979;59.850;10.660;2022-10-29T09:18:10;0.67;;;0.30;;
8982;SDS011;20979;59.850;10.660;2022-10-29T09:20:45;1.47;;;0.60;;
8982;SDS011;20979;59.850;10.660;2022-10-29T09:23:20;2.97;;;0.47;;
8982;SDS011;20979;59.850;10.660;2022-10-29T09:25:49;0.83;;;0.50;;
8982;SDS011;20979;59.850;10.660;2022-10-29T09:28:21;1.87;;;0.30;;
8982;SDS011;20979;59.850;10.660;2022-10-29T09:30:52;1.30;;;0.40;;
8982;SDS011;20979;59.850;10.660;2022-10-29T09:33:25;0.87;;;0.50;;
8982;SDS011;20979;59.850;10.660;2022-10-29T09:35:55;2.07;;;0.60;;
8982;SDS011;20979;59.850;10.660;2022-10-29T09:38:24;1.03;;;0.40;;
8982;SDS011;20979;59.850;10.660;2022-10-29T09:40:55;0.50;;;0.50;;
8982;SDS011;20979;59.850;10.660;2022-10-29T09:43:31;1.93;;;0.63;;
8982;SDS011;20979;59.850;10.660;2022-10-29T09:46:03;0.57;;;0.40;;
8982;SDS011;20979;59.850;10.660;2022-10-29T09:48:33;1.20;;;0.50;;
8982;SDS011;20979;59.850;10.660;2022-10-29T09:51:13;0.93;;;0.40;;
8982;SDS011;20979;59.850;10.660;2022-10-29T09:53:46;1.43;;;0.60;;
8982;SDS011;20979;59.850;10.660;2022-10-29T09:56:15;1.23;;;0.50;;
8982;SDS011;20979;59.850;10.660;2022-10-29T09:58:43;2.40;;;1.03;;
8982;SDS011;20979;59.850;10.660;2022-10-29T10:01:12;0.90;;;0.40;;
8982;SDS011;20979;59.850;10.660;2022-10-29T10:03:40;1.63;;;0.70;;
8982;SDS011;20979;59.850;10.660;2022-10-29T10:06:12;2.47;;;0.70;;
8982;SDS011;20979;59.850;10.660;2022-10-29T10:08:57;1.53;;;0.63;;
8982;SDS011;20979;59.850;10.660;2022-10-29T10:11:33;0.57;;;0.40;;
8982;SDS011;20979;59.850;10.660;2022-10-29T10:14:01;0.83;;;0.60;;
8982;SDS011;20979;59.850;10.660;2022-10-29T10:16:31;0.50;;;0.37;;
8982;SDS011;20979;59.850;10.660;2022-10-29T10:18:59;1.07;;;0.50;;
8982;SDS011;20979;59.850;10.660;2022-10-29T10:21:28;1.23;;;0.60;;
8982;SDS011;20979;59.850;10.660;2022-10-29T10:23:56;2.00;;;0.60;;
8982;SDS011;20979;59.850;10.660;2022-10-29T10:26:25;1.03;;;0.50;;
8982;SDS011;20979;59.850;10.660;2022-10-29T10:29:02;1.07;;;0.50;;
8982;SDS011;20979;59.850;10.660;2022-10-29T10:31:29;1.00;;;0.40;;
8982;SDS011;20979;59.850;10.660;2022-10-29T10:37:04;1.03;;;0.57;;
8982;SDS011;20979;59.850;10.660;2022-10-29T10:39:36;0.60;;;0.50;;
8982;SDS011;20979;59.850;10.660;2022-10-29T10:42:05;0.40;;;0.40;;
8982;SDS011;20979;59.850;10.660;2022-10-29T10:47:58;1.53;;;0.63;;
8982;SDS011;20979;59.850;10.660;2022-10-29T11:20:26;1.27;;;0.67;;
8982;SDS011;20979;59.850;10.660;2022-10-29T11:22:58;2.00;;;0.50;;
8982;SDS011;20979;59.850;10.660;2022-10-29T13:47:31;1.23;;;0.50;;
8982;SDS011;20979;59.850;10.660;2022-10-29T13:50:00;2.63;;;0.87;;
8982;SDS011;20979;59.850;10.660;2022-10-29T14:08:28;2.30;;;0.70;;
8982;SDS011;20979;59.850;10.660;2022-10-29T14:20:58;2.13;;;0.57;;
8982;SDS011;20979;59.850;10.660;2022-10-29T14:23:32;2.10;;;0.60;;
8982;SDS011;20979;59.850;10.660;2022-10-29T14:29:25;1.73;;;0.97;;
8982;SDS011;20979;59.850;10.660;2022-10-29T14:35:16;1.37;;;0.70;;
8982;SDS011;20979;59.850;10.660;2022-10-29T14:37:43;3.13;;;1.23;;
8982;SDS011;20979;59.850;10.660;2022-10-29T14:40:19;2.60;;;1.50;;
8982;SDS011;20979;59.850;10.660;2022-10-29T14:52:39;3.73;;;2.87;;
8982;SDS011;20979;59.850;10.660;2022-10-29T15:13:29;2.10;;;1.00;;
8982;SDS011;20979;59.850;10.660;2022-10-29T15:22:43;1.87;;;1.00;;
8982;SDS011;20979;59.850;10.660;2022-10-29T15:28:28;0.50;;;0.50;;
8982;SDS011;20979;59.850;10.660;2022-10-29T15:31:00;1.93;;;1.00;;
8982;SDS011;20979;59.850;10.660;2022-10-29T15:36:50;1.77;;;0.70;;
8982;SDS011;20979;59.850;10.660;2022-10-29T15:39:18;1.80;;;0.90;;
8982;SDS011;20979;59.850;10.660;2022-10-29T15:47:37;1.50;;;0.60;;
8982;SDS011;20979;59.850;10.660;2022-10-29T15:50:06;2.47;;;1.03;;
8982;SDS011;20979;59.850;10.660;2022-10-29T15:52:48;2.63;;;0.87;;
8982;SDS011;20979;59.850;10.660;2022-10-29T15:55:31;1.73;;;0.77;;
8982;SDS011;20979;59.850;10.660;2022-10-29T15:58:38;0.90;;;0.90;;
8982;SDS011;20979;59.850;10.660;2022-10-29T16:01:03;1.00;;;0.60;;
8982;SDS011;20979;59.850;10.660;2022-10-29T16:03:32;0.63;;;0.60;;
8982;SDS011;20979;59.850;10.660;2022-10-29T16:06:02;1.17;;;1.00;;
8982;SDS011;20979;59.850;10.660;2022-10-29T16:08:31;0.87;;;0.80;;
8982;SDS011;20979;59.850;10.660;2022-10-29T16:11:26;3.47;;;1.00;;
8982;SDS011;20979;59.850;10.660;2022-10-29T16:13:53;1.53;;;0.93;;
8982;SDS011;20979;59.850;10.660;2022-10-29T16:16:21;1.83;;;0.87;;
8982;SDS011;20979;59.850;10.660;2022-10-29T16:18:50;1.70;;;0.80;;
8982;SDS011;20979;59.850;10.660;2022-10-29T16:21:19;0.70;;;0.70;;
8982;SDS011;20979;59.850;10.660;2022-10-29T16:23:47;1.37;;;0.60;;
8982;SDS011;20979;59.850;10.660;2022-10-29T16:26:15;1.53;;;0.70;;
8982;SDS011;20979;59.850;10.660;2022-10-29T16:28:42;0.80;;;0.50;;
8982;SDS011;20979;59.850;10.660;2022-10-29T16:31:13;1.10;;;0.70;;
8982;SDS011;20979;59.850;10.660;2022-10-29T16:33:44;1.00;;;0.60;;
8982;SDS011;20979;59.850;10.660;2022-10-29T16:39:07;0.93;;;0.60;;
8982;SDS011;20979;59.850;10.660;2022-10-29T16:41:34;1.47;;;0.70;;
8982;SDS011;20979;59.850;10.660;2022-10-29T16:44:01;1.80;;;0.77;;
8982;SDS011;20979;59.850;10.660;2022-10-29T16:46:29;2.53;;;1.40;;
8982;SDS011;20979;59.850;10.660;2022-10-29T16:48:59;1.30;;;1.20;;
8982;SDS011;20979;59.850;10.660;2022-10-29T16:51:26;1.63;;;1.40;;
8982;SDS011;20979;59.850;10.660;2022-10-29T16:53:54;2.20;;;1.60;;
8982;SDS011;20979;59.850;10.660;2022-10-29T16:56:23;3.67;;;2.07;;
8982;SDS011;20979;59.850;10.660;2022-10-29T16:58:50;3.33;;;2.00;;
8982;SDS011;20979;59.850;10.660;2022-10-29T17:01:17;3.27;;;1.77;;
8982;SDS011;20979;59.850;10.660;2022-10-29T17:03:49;2.67;;;1.60;;
8982;SDS011;20979;59.850;10.660;2022-10-29T17:06:17;3.87;;;1.47;;
8982;SDS011;20979;59.850;10.660;2022-10-29T17:08:44;1.70;;;1.23;;
8982;SDS011;20979;59.850;10.660;2022-10-29T17:11:12;1.70;;;1.30;;
8982;SDS011;20979;59.850;10.660;2022-10-29T17:13:40;1.63;;;1.10;;
8982;SDS011;20979;59.850;10.660;2022-10-29T17:16:08;1.07;;;0.90;;
8982;SDS011;20979;59.850;10.660;2022-10-29T17:18:37;1.47;;;1.00;;
8982;SDS011;20979;59.850;10.660;2022-10-29T17:21:04;1.70;;;0.80;;
8982;SDS011;20979;59.850;10.660;2022-10-29T17:23:31;2.30;;;1.47;;
8982;SDS011;20979;59.850;10.660;2022-10-29T17:25:59;1.53;;;1.30;;
8982;SDS011;20979;59.850;10.660;2022-10-29T17:28:26;2.70;;;1.40;;
8982;SDS011;20979;59.850;10.660;2022-10-29T17:30:55;2.03;;;1.10;;
8982;SDS011;20979;59.850;10.660;2022-10-29T17:33:22;1.70;;;1.07;;
8982;SDS011;20979;59.850;10.660;2022-10-29T17:35:53;1.13;;;0.93;;
8982;SDS011;20979;59.850;10.660;2022-10-29T17:38:25;1.40;;;1.20;;
8982;SDS011;20979;59.850;10.660;2022-10-29T17:40:53;1.77;;;1.00;;
8982;SDS011;20979;59.850;10.660;2022-10-29T17:43:20;3.40;;;1.10;;
8982;SDS011;20979;59.850;10.660;2022-10-29T17:45:47;1.30;;;1.10;;
8982;SDS011;20979;59.850;10.660;2022-10-29T17:48:16;2.40;;;1.00;;
8982;SDS011;20979;59.850;10.660;2022-10-29T17:50:50;1.13;;;1.03;;
8982;SDS011;20979;59.850;10.660;2022-10-29T17:53:17;1.30;;;0.80;;
8982;SDS011;20979;59.850;10.660;2022-10-29T17:55:44;3.07;;;1.20;;
8982;SDS011;20979;59.850;10.660;2022-10-29T17:58:12;1.37;;;0.87;;
8982;SDS011;20979;59.850;10.660;2022-10-29T18:00:39;1.17;;;0.77;;
8982;SDS011;20979;59.850;10.660;2022-10-29T18:03:06;2.67;;;1.00;;
8982;SDS011;20979;59.850;10.660;2022-10-29T18:05:35;1.30;;;1.00;;
8982;SDS011;20979;59.850;10.660;2022-10-29T18:08:02;2.23;;;1.00;;
8982;SDS011;20979;59.850;10.660;2022-10-29T18:10:30;1.30;;;1.00;;
8982;SDS011;20979;59.850;10.660;2022-10-29T18:12:57;1.10;;;0.90;;
8982;SDS011;20979;59.850;10.660;2022-10-29T18:15:24;1.03;;;0.83;;
8982;SDS011;20979;59.850;10.660;2022-10-29T18:17:51;1.80;;;0.90;;
8982;SDS011;20979;59.850;10.660;2022-10-29T18:20:18;0.90;;;0.90;;
8982;SDS011;20979;59.850;10.660;2022-10-29T18:22:47;3.17;;;1.50;;
8982;SDS011;20979;59.850;10.660;2022-10-29T18:25:14;2.30;;;1.17;;
8982;SDS011;20979;59.850;10.660;2022-10-29T18:27:41;2.30;;;1.00;;
8982;SDS011;20979;59.850;10.660;2022-10-29T18:30:09;1.40;;;0.90;;
8982;SDS011;20979;59.850;10.660;2022-10-29T18:32:36;1.10;;;1.00;;
8982;SDS011;20979;59.850;10.660;2022-10-29T18:35:04;1.67;;;0.90;;
8982;SDS011;20979;59.850;10.660;2022-10-29T18:37:31;1.33;;;1.10;;
8982;SDS011;20979;59.850;10.660;2022-10-29T18:39:59;1.57;;;1.40;;
8982;SDS011;20979;59.850;10.660;2022-10-29T18:42:27;1.73;;;1.63;;
8982;SDS011;20979;59.850;10.660;2022-10-29T18:44:54;1.70;;;1.17;;
8982;SDS011;20979;59.850;10.660;2022-10-29T18:47:21;2.80;;;1.20;;
8982;SDS011;20979;59.850;10.660;2022-10-29T18:49:48;1.00;;;0.90;;
8982;SDS011;20979;59.850;10.660;2022-10-29T18:52:16;1.00;;;0.77;;
8982;SDS011;20979;59.850;10.660;2022-10-29T18:54:43;1.63;;;0.87;;
8982;SDS011;20979;59.850;10.660;2022-10-29T18:57:11;0.90;;;0.90;;
8982;SDS011;20979;59.850;10.660;2022-10-29T18:59:40;1.67;;;0.77;;
8982;SDS011;20979;59.850;10.660;2022-10-29T19:02:08;1.93;;;1.13;;
8982;SDS011;20979;59.850;10.660;2022-10-29T19:04:36;1.17;;;0.97;;
8982;SDS011;20979;59.850;10.660;2022-10-29T19:07:03;2.20;;;1.30;;
8982;SDS011;20979;59.850;10.660;2022-10-29T19:09:35;3.47;;;2.07;;
8982;SDS011;20979;59.850;10.660;2022-10-29T19:12:02;2.60;;;1.20;;
8982;SDS011;20979;59.850;10.660;2022-10-29T19:17:13;1.77;;;1.53;;
8982;SDS011;20979;59.850;10.660;2022-10-29T19:19:41;2.17;;;1.60;;
8982;SDS011;20979;59.850;10.660;2022-10-29T19:22:08;1.53;;;1.20;;
8982;SDS011;20979;59.850;10.660;2022-10-29T19:24:36;1.90;;;1.23;;
8982;SDS011;20979;59.850;10.660;2022-10-29T19:27:12;2.03;;;1.20;;
8982;SDS011;20979;59.850;10.660;2022-10-29T19:38:02;4.60;;;1.87;;
8982;SDS011;20979;59.850;10.660;2022-10-29T19:40:30;4.10;;;1.77;;
8982;SDS011;20979;59.850;10.660;2022-10-29T19:42:57;4.13;;;2.00;;
8982;SDS011;20979;59.850;10.660;2022-10-29T19:45:25;2.23;;;1.90;;
8982;SDS011;20979;59.850;10.660;2022-10-29T19:48:16;4.03;;;2.23;;
8982;SDS011;20979;59.850;10.660;2022-10-29T19:50:49;3.50;;;2.30;;
8982;SDS011;20979;59.850;10.660;2022-10-29T19:53:26;3.17;;;2.67;;
8982;SDS011;20979;59.850;10.660;2022-10-29T19:55:53;5.30;;;2.80;;
8982;SDS011;20979;59.850;10.660;2022-10-29T19:58:34;3.07;;;2.33;;
8982;SDS011;20979;59.850;10.660;2022-10-29T20:01:02;2.53;;;2.33;;
8982;SDS011;20979;59.850;10.660;2022-10-29T20:06:47;5.03;;;2.23;;
8982;SDS011;20979;59.850;10.660;2022-10-29T20:09:15;3.77;;;2.27;;
8982;SDS011;20979;59.850;10.660;2022-10-29T20:11:43;4.07;;;2.50;;
8982;SDS011;20979;59.850;10.660;2022-10-29T20:14:10;4.77;;;2.40;;
8982;SDS011;20979;59.850;10.660;2022-10-29T20:16:43;5.53;;;2.90;;
8982;SDS011;20979;59.850;10.660;2022-10-29T20:19:12;9.70;;;6.33;;
8982;SDS011;20979;59.850;10.660;2022-10-29T20:21:47;12.20;;;8.10;;
8982;SDS011;20979;59.850;10.660;2022-10-29T20:27:20;9.10;;;6.70;;
8982;SDS011;20979;59.850;10.660;2022-10-29T20:33:06;9.83;;;5.50;;
8982;SDS011;20979;59.850;10.660;2022-10-29T20:36:17;11.70;;;7.43;;
8982;SDS011;20979;59.850;10.660;2022-10-29T20:38:46;14.10;;;8.10;;
8982;SDS011;20979;59.850;10.660;2022-10-29T20:44:29;14.77;;;7.67;;
8982;SDS011;20979;59.850;10.660;2022-10-29T20:47:18;11.80;;;7.63;;
8982;SDS011;20979;59.850;10.660;2022-10-29T20:49:45;15.57;;;10.57;;
8982;SDS011;20979;59.850;10.660;2022-10-29T20:52:13;19.67;;;12.70;;
8982;SDS011;20979;59.850;10.660;2022-10-29T20:57:52;17.73;;;12.70;;
8982;SDS011;20979;59.850;10.660;2022-10-29T21:16:05;11.07;;;8.40;;
8982;SDS011;20979;59.850;10.660;2022-10-29T21:18:36;11.67;;;7.67;;
8982;SDS011;20979;59.850;10.660;2022-10-29T21:30:32;11.17;;;7.17;;
8982;SDS011;20979;59.850;10.660;2022-10-29T21:36:17;7.63;;;5.87;;
8982;SDS011;20979;59.850;10.660;2022-10-29T21:39:19;7.57;;;5.03;;